Latest Weather Observations for Moss Vale

IDN60801

Issued at 12:35 pm EST Friday 18 April 2014 (issued every 30 minutes, with the page automatically refreshed every 10 minutes)

About weather observations | Map of weather stations | Latest weather observations for NSW | Other Formats
Station Details ID: 068239 Name: MOSS VALE AWS Lat: -34.53 Lon: 150.42 Height: 678.4 m
Data from the previous 72 hours. | See also: Recent months at Moss Vale
Date/Time
EST
Temp
°C
App
Temp
°C
Dew
Point
Rel
Hum
%
Delta-T
°C
Wind Press
QNH
hPa
Press
MSL
hPa
Rain
since 9 am
mm
Dir
 
Spd
km/h
Gust
km/h
Spd
kts
Gust
kts
18/12:30pm 17.5 10.7 7.5 52 5.2 WSW 33 46 18 25 1014.9 - 0.0
18/12:00pm 17.4 10.7 7.2 51 5.3 WSW 32 46 17 25 1015.3 1014.5 0.0
18/11:55am 17.1 11.1 6.9 51 5.2 WSW 28 46 15 25 1015.3 - 0.0
18/11:30am 17.2 11.2 8.6 57 4.6 W 30 39 16 21 1015.7 - 0.0
18/11:00am 16.5 11.8 9.2 62 3.9 W 24 35 13 19 1016.1 - 0.0
18/10:30am 15.3 10.4 8.5 64 3.6 W 24 37 13 20 1016.7 - 0.0
18/10:00am 14.4 10.5 9.6 73 2.6 WNW 20 28 11 15 1017.0 - 0.0
18/09:30am 13.5 9.8 9.6 77 2.1 W 19 32 10 17 1017.5 - 0.0
18/09:00am 12.5 8.6 9.5 82 1.6 WNW 20 26 11 14 1017.6 1016.9 0.2
18/08:30am 10.4 8.4 8.5 88 1.0 WNW 9 15 5 8 1017.6 - 0.2
18/08:00am 8.5 6.0 8.2 98 0.1 W 11 15 6 8 1017.8 - 0.2
18/07:30am 6.4 4.4 6.1 98 0.1 WSW 6 7 3 4 1017.7 - 0.2
18/07:15am 5.2 2.7 4.9 98 0.1 WSW 7 9 4 5 1017.8 - 0.2
18/07:00am 4.3 1.7 4.0 98 0.1 W 7 9 4 5 1017.8 - 0.2
18/06:30am 3.6 1.4 3.2 97 0.2 W 4 6 2 3 1017.8 - 0.2
18/06:00am 3.3 1.8 2.9 97 0.2 CALM 0 0 0 0 1017.7 1017.0 0.2
18/05:30am 4.1 2.7 3.7 97 0.2 CALM 0 0 0 0 1017.6 - 0.2
18/05:00am 4.1 2.7 3.7 97 0.2 CALM 0 0 0 0 1017.8 - 0.2
18/04:36am 4.3 3.0 3.9 97 0.2 CALM 0 0 0 0 1018.1 - 0.2
18/04:30am 4.1 2.7 3.7 97 0.2 CALM 0 0 0 0 1018.2 - 0.2
18/04:00am 4.5 3.2 4.1 97 0.2 CALM 0 0 0 0 1018.2 - 0.2
18/03:51am 4.4 3.1 4.0 97 0.2 CALM 0 6 0 3 1018.2 - 0.2
18/03:48am 4.3 3.0 3.9 97 0.2 CALM 0 6 0 3 1018.2 - 0.2
18/03:34am 4.4 2.3 4.0 97 0.2 W 4 6 2 3 1018.3 - 0.2
18/03:30am 4.3 2.2 3.9 97 0.2 W 4 6 2 3 1018.4 - 0.2
18/03:00am 4.8 2.8 4.4 97 0.2 WSW 4 6 2 3 1018.5 1017.7 0.2
18/02:30am 4.5 2.4 3.9 96 0.3 W 4 6 2 3 1018.6 - 0.0
18/02:00am 5.3 2.4 4.9 97 0.2 W 9 9 5 5 1018.9 - 0.0
18/01:30am 5.1 2.6 4.5 96 0.3 WNW 7 9 4 5 1019.2 - 0.0
18/01:00am 6.5 4.5 6.1 97 0.2 W 6 7 3 4 1019.4 - 0.0
18/12:30am 7.0 4.9 6.6 97 0.2 W 7 9 4 5 1019.9 - 0.0
18/12:00am 7.4 5.4 7.0 97 0.2 WNW 7 9 4 5 1020.0 1019.2 0.0
 
Date/Time
EST
Temp
°C
App
Temp
°C
Dew
Point
Rel
Hum
%
Delta-T
°C
Wind Press
QNH
hPa
Press
MSL
hPa
Rain
since 9 am
mm
Dir
 
Spd
km/h
Gust
km/h
Spd
kts
Gust
kts
17/11:30pm 7.1 5.5 6.5 96 0.3 WNW 4 6 2 3 1020.1 - 0.0
17/11:00pm 7.9 6.0 7.5 97 0.2 WNW 7 9 4 5 1020.5 - 0.0
17/10:30pm 7.3 5.2 6.6 95 0.3 WNW 7 9 4 5 1020.8 - 0.0
17/10:00pm 8.4 6.8 7.8 96 0.3 WNW 6 7 3 4 1021.2 - 0.0
17/09:30pm 8.9 8.5 8.1 95 0.4 CALM 0 0 0 0 1021.1 - 0.0
17/09:00pm 9.2 8.8 8.3 94 0.5 CALM 0 0 0 0 1020.9 1020.2 0.0
17/08:58pm 9.2 8.8 8.3 94 0.5 CALM 0 0 0 0 1020.9 - 0.0
17/08:30pm 10.0 8.7 9.1 94 0.5 WSW 6 6 3 3 1020.9 - 0.0
17/08:00pm 10.0 8.6 8.9 93 0.6 WSW 6 7 3 4 1020.8 - 0.0
17/07:30pm 10.5 9.2 9.1 91 0.7 SSE 6 7 3 4 1020.7 - 0.0
17/07:00pm 10.9 9.6 9.2 89 0.9 SE 6 7 3 4 1020.4 - 0.0
17/06:30pm 11.3 9.4 9.2 87 1.1 SSE 9 15 5 8 1020.3 - 0.0
17/06:00pm 12.2 10.4 9.6 84 1.4 SSE 9 13 5 7 1020.1 1019.3 0.0
17/05:30pm 12.8 9.4 9.1 78 1.9 SSE 17 22 9 12 1019.9 - 0.0
17/05:00pm 13.4 9.4 8.9 74 2.4 SSE 20 28 11 15 1019.8 - 0.0
17/04:30pm 14.6 11.0 8.5 67 3.2 SSE 17 22 9 12 1019.4 - 0.0
17/04:00pm 15.7 12.5 8.4 62 3.8 SE 15 20 8 11 1019.1 - 0.0
17/03:30pm 16.3 13.3 7.5 56 4.6 SSE 13 20 7 11 1019.2 - 0.0
17/03:00pm 16.4 13.4 9.1 62 3.9 S 15 19 8 10 1019.3 1018.6 0.0
17/02:30pm 16.3 13.2 8.8 61 4.0 SSW 15 20 8 11 1019.4 - 0.0
17/02:00pm 16.4 12.8 8.4 59 4.2 S 17 30 9 16 1019.4 - 0.0
17/01:30pm 15.6 12.5 8.8 64 3.6 S 15 20 8 11 1019.7 - 0.0
17/01:00pm 16.2 13.5 8.9 62 3.9 S 13 22 7 12 1019.8 - 0.0
17/12:30pm 16.2 12.6 8.4 60 4.1 S 17 24 9 13 1020.1 - 0.0
17/12:00pm 16.0 11.9 8.7 62 3.9 S 20 26 11 14 1020.5 1019.8 0.0
17/11:30am 15.9 11.9 8.9 63 3.7 S 20 28 11 15 1020.9 - 0.0
17/11:00am 15.1 9.9 7.2 59 4.0 S 24 30 13 16 1021.2 - 0.0
17/10:30am 15.1 11.4 9.5 69 3.0 S 19 26 10 14 1021.3 - 0.0
17/10:00am 14.4 10.3 8.8 69 2.9 S 20 30 11 16 1021.3 - 0.0
17/09:30am 13.7 9.4 7.9 68 3.0 SSW 20 26 11 14 1021.3 - 0.0
17/09:00am 12.9 9.7 8.6 75 2.2 SSW 15 20 8 11 1021.3 1020.5 0.0
17/08:30am 11.0 8.8 9.4 90 0.8 W 11 15 6 8 1021.2 - 0.0
17/08:00am 9.1 6.2 8.3 95 0.4 W 13 17 7 9 1021.1 - 0.0
17/07:30am 7.8 5.5 7.5 98 0.1 W 9 13 5 7 1020.8 - 0.0
17/07:02am 6.8 3.9 6.5 98 0.1 W 11 15 6 8 1020.4 - 0.0
17/07:00am 6.7 3.8 6.4 98 0.1 W 11 13 6 7 1020.4 - 0.0
17/06:52am 6.5 3.2 6.2 98 0.1 W 13 15 7 8 1020.2 - 0.0
17/06:30am 6.4 3.8 6.1 98 0.1 W 9 11 5 6 1020.1 - 0.0
17/06:07am 6.4 3.4 6.1 98 0.1 W 11 13 6 7 1019.9 - 0.0
17/06:00am 6.4 3.4 6.1 98 0.1 W 11 15 6 8 1019.9 1019.1 0.0
17/05:36am 6.5 4.5 6.1 97 0.2 W 6 7 3 4 1019.8 - 0.0
17/05:30am 6.4 4.7 6.0 97 0.2 W 4 7 2 4 1019.7 - 0.0
17/05:00am 6.5 3.2 6.2 98 0.1 W 13 15 7 8 1019.4 - 0.0
17/04:30am 6.7 2.6 6.4 98 0.1 W 17 17 9 9 1019.4 - 0.0
17/04:00am 6.4 3.0 6.1 98 0.1 W 13 17 7 9 1019.4 - 0.0
17/03:38am 6.5 2.8 6.2 98 0.1 W 15 17 8 9 1019.3 - 0.0
17/03:30am 6.4 3.0 6.0 97 0.2 W 13 17 7 9 1019.2 - 0.0
17/03:00am 6.5 3.5 6.1 97 0.2 W 11 13 6 7 1019.2 1018.5 0.0
17/02:30am 6.5 3.5 6.1 97 0.2 W 11 13 6 7 1019.3 - 0.0
17/02:00am 6.5 4.3 6.1 97 0.2 W 7 9 4 5 1019.6 - 0.0
17/01:30am 6.9 4.8 6.5 97 0.2 W 7 9 4 5 1019.9 - 0.0
17/01:15am 6.5 4.3 6.1 97 0.2 W 7 11 4 6 1020.1 - 0.0
17/01:00am 6.9 4.4 6.5 97 0.2 W 9 11 5 6 1020.3 - 0.0
17/12:56am 7.1 4.6 6.7 97 0.2 W 9 11 5 6 1020.3 - 0.0
17/12:30am 6.5 3.5 5.9 96 0.3 W 11 11 6 6 1020.4 - 0.0
17/12:00am 6.9 6.1 6.3 96 0.3 CALM 0 4 0 2 1020.5 1019.8 0.0
 
Date/Time
EST
Temp
°C
App
Temp
°C
Dew
Point
Rel
Hum
%
Delta-T
°C
Wind Press
QNH
hPa
Press
MSL
hPa
Rain
since 9 am
mm
Dir
 
Spd
km/h
Gust
km/h
Spd
kts
Gust
kts
16/11:30pm 7.5 5.5 6.9 96 0.3 WNW 7 9 4 5 1020.6 - 0.0
16/11:00pm 7.6 5.6 6.9 95 0.3 W 7 7 4 4 1020.7 - 0.0
16/10:30pm 7.9 6.1 7.1 95 0.4 W 6 7 3 4 1020.9 - 0.0
16/10:23pm 8.0 6.2 7.2 95 0.4 W 6 7 3 4 1020.9 - 0.0
16/10:00pm 8.6 8.1 7.8 95 0.4 CALM 0 6 0 3 1020.9 - 0.0
16/09:30pm 8.8 8.3 8.0 95 0.4 CALM 0 6 0 3 1021.1 - 0.0
16/09:00pm 9.5 9.1 8.3 92 0.6 CALM 0 0 0 0 1020.9 1020.2 0.0
16/08:30pm 9.8 8.2 8.1 89 0.9 S 6 9 3 5 1020.7 - 0.0
16/08:00pm 10.8 9.2 8.9 88 1.0 S 7 11 4 6 1020.5 - 0.0
16/07:30pm 10.7 9.1 8.6 87 1.1 S 7 9 4 5 1020.4 - 0.0
16/07:00pm 10.8 8.7 8.4 85 1.2 S 9 11 5 6 1020.2 - 0.0
16/06:30pm 11.4 9.1 9.0 85 1.2 SSE 11 13 6 7 1019.9 - 0.0
16/06:00pm 11.8 9.1 8.8 82 1.5 SSE 13 15 7 8 1019.7 1018.9 0.0
16/05:30pm 12.4 10.5 9.1 80 1.7 SE 9 13 5 7 1019.6 - 0.0
16/05:00pm 13.6 10.7 9.6 77 2.1 SSE 15 19 8 10 1019.3 - 0.0
16/04:30pm 14.2 10.9 9.6 74 2.5 SE 17 22 9 12 1019.2 - 0.0
16/04:00pm 14.8 12.1 10.2 74 2.5 SE 15 20 8 11 1019.0 - 0.0
16/03:30pm 15.3 12.2 10.3 72 2.7 SSE 17 24 9 13 1019.1 - 0.0
16/03:00pm 15.4 11.8 10.0 70 2.9 SE 19 26 10 14 1019.1 1018.4 0.0
16/02:30pm 15.2 11.6 9.8 70 2.9 SSE 19 26 10 14 1019.3 - 0.0
16/02:00pm 16.7 14.4 8.9 60 4.2 SW 11 19 6 10 1019.1 - 0.0
16/01:30pm 15.4 13.2 9.5 68 3.2 SSE 11 17 6 9 1019.2 - 0.0
16/01:00pm 15.5 13.2 10.5 72 2.7 SSE 13 20 7 11 1019.7 - 0.0
16/12:30pm 15.9 13.9 11.5 75 2.5 S 13 20 7 11 1020.0 - 0.0
16/12:00pm 15.4 12.8 10.6 73 2.6 S 15 22 8 12 1020.6 1019.9 0.0
16/11:30am 14.6 11.6 10.6 77 2.2 S 17 26 9 14 1021.2 - 0.0
16/11:00am 13.8 10.5 9.6 76 2.2 SSW 17 20 9 11 1021.3 - 0.0
16/10:30am 13.2 9.3 9.6 79 1.9 SSW 20 26 11 14 1021.4 - 0.0
16/10:00am 12.7 10.0 8.8 77 2.0 SW 13 20 7 11 1021.6 - 0.0
16/09:30am 11.9 8.7 8.4 79 1.8 WSW 15 20 8 11 1021.7 - 0.0
16/09:20am 11.7 8.9 8.4 80 1.7 WSW 13 19 7 10 1021.8 - 0.0
16/09:00am 11.3 7.7 8.2 81 1.6 W 17 24 9 13 1021.7 1021.0 1.4
16/08:30am 10.2 6.7 7.3 82 1.4 W 15 22 8 12 1021.8 - 1.4
16/08:00am 9.8 6.3 7.2 84 1.3 W 15 20 8 11 1021.6 - 1.4
16/07:30am 9.3 6.5 7.1 86 1.1 W 11 15 6 8 1021.3 - 1.4
16/07:00am 9.2 6.4 7.0 86 1.1 W 11 15 6 8 1021.1 - 1.4
16/06:30am 9.2 7.2 7.3 88 0.9 W 7 11 4 6 1020.7 - 1.4
16/06:00am 9.1 6.4 7.2 88 0.9 W 11 15 6 8 1020.6 1019.9 1.4
16/05:30am 9.0 6.3 7.5 90 0.7 W 11 15 6 8 1020.4 - 1.4
16/05:00am 8.9 7.0 7.5 91 0.7 SW 7 9 4 5 1020.3 - 1.4
16/04:30am 8.6 6.3 7.5 93 0.5 W 9 13 5 7 1020.4 - 1.4
16/04:05am 8.5 6.2 7.3 92 0.6 W 9 11 5 6 1020.3 - 1.4
16/04:00am 8.7 6.8 7.5 92 0.6 WSW 7 11 4 6 1020.3 - 1.4
16/03:31am 9.0 7.1 7.6 91 0.7 W 7 11 4 6 1020.3 - 1.4
16/03:30am 9.1 7.2 7.7 91 0.7 W 7 11 4 6 1020.3 - 1.4
16/03:00am 9.6 7.0 7.9 89 0.8 SSW 11 15 6 8 1020.3 1019.6 1.4
16/02:30am 9.6 6.6 7.9 89 0.8 S 13 19 7 10 1020.5 - 1.4
16/02:00am 9.2 6.6 7.6 90 0.8 S 11 13 6 7 1020.9 - 1.4
16/01:30am 9.6 7.1 8.0 90 0.8 S 11 15 6 8 1021.3 - 1.4
16/01:00am 9.8 6.5 8.2 90 0.8 S 15 20 8 11 1021.4 - 1.4
16/12:30am 10.1 6.6 8.7 91 0.7 SSW 17 22 9 12 1021.5 - 1.4
16/12:00am 10.6 6.8 9.2 91 0.7 S 19 24 10 13 1021.6 1020.9 1.4
 
Date/Time
EST
Temp
°C
App
Temp
°C
Dew
Point
Rel
Hum
%
Delta-T
°C
Wind Press
QNH
hPa
Press
MSL
hPa
Rain
since 9 am
mm
Dir
 
Spd
km/h
Gust
km/h
Spd
kts
Gust
kts
15/11:30pm 10.8 7.8 9.2 90 0.8 S 15 24 8 13 1021.8 - 1.4
15/11:00pm 11.0 7.3 9.4 90 0.8 S 19 26 10 14 1021.9 - 1.4
15/10:30pm 11.2 7.3 9.3 88 1.0 S 20 35 11 19 1022.0 - 1.4
15/10:00pm 11.7 7.1 9.6 87 1.1 S 24 35 13 19 1021.9 - 1.4
15/09:30pm 11.4 6.3 9.3 87 1.1 S 26 37 14 20 1021.8 - 1.4
15/09:00pm 11.7 5.9 9.4 86 1.2 S 30 39 16 21 1021.9 1021.2 1.4
15/08:30pm 11.8 6.2 10.0 89 1.0 S 30 41 16 22 1021.7 - 1.4
15/08:00pm 11.8 6.3 10.4 91 0.7 S 30 39 16 21 1021.7 - 1.4
15/07:42pm 11.7 7.7 10.3 91 0.7 S 22 28 12 15 1021.8 - 1.4
15/07:30pm 11.7 7.4 10.6 93 0.6 S 24 33 13 18 1022.0 - 1.4
15/07:01pm 12.1 8.6 11.0 93 0.6 S 20 28 11 15 1021.6 - 0.4
15/07:00pm 12.1 8.6 11.0 93 0.6 S 20 28 11 15 1021.6 - 0.2
15/06:52pm 12.1 8.8 10.8 92 0.7 S 19 26 10 14 1021.7 - 0.2
15/06:33pm 12.1 9.2 11.0 93 0.6 S 17 26 9 14 1021.6 - 0.2
15/06:30pm 12.2 9.3 11.1 93 0.6 S 17 26 9 14 1021.6 - 0.2
15/06:26pm 12.2 9.3 11.1 93 0.6 S 17 32 9 17 1021.6 - 0.2
15/06:02pm 12.3 8.0 10.9 91 0.8 SSE 24 35 13 19 1021.1 - 0.0
15/06:00pm 12.3 8.0 10.9 91 0.8 SSE 24 35 13 19 1021.1 1020.3 0.0
15/05:36pm 12.6 8.8 11.0 90 0.9 SSE 22 30 12 16 1021.1 - 0.0
15/05:30pm 12.6 8.7 10.8 89 1.0 SSE 22 28 12 15 1020.9 - 0.0
15/05:02pm 13.4 10.2 11.3 87 1.2 SE 19 32 10 17 1020.7 - 0.0
15/05:00pm 13.7 11.0 11.6 87 1.2 SE 17 28 9 15 1020.7 - 0.0
15/04:30pm 14.8 11.0 11.2 79 2.0 S 22 30 12 16 1020.5 - 0.0
15/04:00pm 13.9 9.9 10.5 80 1.8 SSE 22 30 12 16 1020.6 - 0.0
15/03:30pm 14.7 10.5 9.9 73 2.6 SSE 22 28 12 15 1020.4 - 0.0
15/03:00pm 16.0 12.0 10.3 69 3.1 S 22 30 12 16 1020.4 1019.7 0.0
15/02:30pm 15.8 11.0 9.0 64 3.6 SSE 24 30 13 16 1020.3 - 0.0
15/02:00pm 15.3 11.5 9.0 66 3.3 S 19 26 10 14 1020.3 - 0.0
15/01:30pm 15.7 12.3 9.1 65 3.5 S 17 24 9 13 1020.3 - 0.0
15/01:00pm 15.7 11.7 8.4 62 3.8 SSW 19 26 10 14 1020.5 - 0.0

Other Formats:

Comma delimited format used in spreadsheet applications
http://www.bom.gov.au/fwo/IDN60801/IDN60801.94746.axf

JavaScript Object Notation format (JSON) in row-major order
http://www.bom.gov.au/fwo/IDN60801/IDN60801.94746.json